Time;durP1;ratioP1;P1;durP2;ratioP2;P2;SDS_P1;SDS_P2;PMS_P1;PMS_P2;Temp;Humidity;BMP_temperature;BMP_pressure;BME280_temperature;BME280_humidity;BME280_pressure;Samples;Min_cycle;Max_cycle;Signal;HPM_P1;HPM_P2
2022/09/09 00:01:50;;;;;;;13.57;12.43;;;14.70;99.90;;;;;;5079288;28;20470;-68
2022/09/09 00:04:28;;;;;;;14.53;13.10;;;14.70;99.90;;;;;;5078306;28;20483;-68
2022/09/09 00:07:04;;;;;;;15.20;13.67;;;14.60;99.90;;;;;;5080074;28;20501;-68
2022/09/09 00:09:37;;;;;;;15.27;13.60;;;14.60;99.90;;;;;;5080242;28;20458;-67
2022/09/09 00:12:11;;;;;;;16.20;13.67;;;14.60;99.90;;;;;;5077991;28;20466;-68
2022/09/09 00:14:45;;;;;;;20.67;12.97;;;14.60;99.90;;;;;;5078590;28;20462;-68
2022/09/09 00:17:25;;;;;;;17.73;13.20;;;14.60;99.90;;;;;;5080803;28;20458;-68
2022/09/09 00:19:58;;;;;;;13.67;12.63;;;14.60;99.90;;;;;;5079051;28;20458;-68
2022/09/09 00:22:31;;;;;;;15.43;13.53;;;14.60;99.90;;;;;;5077583;28;20493;-70
2022/09/09 00:25:10;;;;;;;14.60;13.17;;;14.50;99.90;;;;;;5076955;28;20468;-67
2022/09/09 00:27:41;;;;;;;17.60;13.00;;;14.50;99.90;;;;;;5076387;28;20458;-65
2022/09/09 00:30:19;;;;;;;15.27;12.90;;;14.40;99.90;;;;;;5079843;28;20494;-68
2022/09/09 00:32:47;;;;;;;20.07;13.37;;;14.40;99.90;;;;;;5078504;28;20465;-67
2022/09/09 00:35:19;;;;;;;15.57;13.90;;;14.30;99.90;;;;;;5076480;28;20474;-66
2022/09/09 00:37:51;;;;;;;21.60;14.67;;;14.40;99.90;;;;;;5080890;28;20500;-67
2022/09/09 00:40:26;;;;;;;20.43;14.47;;;14.30;99.90;;;;;;5078868;28;20461;-66
2022/09/09 00:43:01;;;;;;;16.23;13.57;;;14.20;99.90;;;;;;5077065;28;20988;-66
2022/09/09 00:45:53;;;;;;;14.00;12.67;;;14.20;99.90;;;;;;5078198;28;20799;-65
2022/09/09 00:48:23;;;;;;;20.53;13.80;;;14.10;99.90;;;;;;5077104;28;20458;-66
2022/09/09 00:50:57;;;;;;;16.50;14.43;;;14.20;99.90;;;;;;5082802;28;20466;-68
2022/09/09 00:53:37;;;;;;;14.97;13.50;;;14.20;99.90;;;;;;5075225;28;20464;-66
2022/09/09 00:56:13;;;;;;;16.63;14.30;;;14.20;99.90;;;;;;5080716;28;20473;-67
2022/09/09 00:58:40;;;;;;;14.70;13.40;;;14.20;99.90;;;;;;5075041;28;20455;-67
2022/09/09 01:01:11;;;;;;;14.13;12.60;;;14.20;99.90;;;;;;5078904;28;20465;-66
2022/09/09 01:03:41;;;;;;;15.50;13.20;;;14.20;99.90;;;;;;5071724;28;20539;-67
2022/09/09 01:06:17;;;;;;;17.07;12.43;;;14.10;99.90;;;;;;5075566;28;20491;-65
2022/09/09 01:09:06;;;;;;;14.83;13.40;;;14.10;99.90;;;;;;5073854;28;20512;-68
2022/09/09 01:11:43;;;;;;;15.13;13.70;;;14.10;99.90;;;;;;5076767;28;20466;-65
2022/09/09 01:14:21;;;;;;;14.83;13.77;;;14.00;99.90;;;;;;5081699;28;20476;-66
2022/09/09 01:16:48;;;;;;;14.73;13.50;;;14.00;99.90;;;;;;5074901;28;20478;-66
2022/09/09 01:19:25;;;;;;;14.33;13.43;;;14.00;99.90;;;;;;5077909;28;20457;-66
2022/09/09 01:22:02;;;;;;;14.40;13.60;;;14.00;99.90;;;;;;5086608;28;20489;-67
2022/09/09 01:24:39;;;;;;;13.93;12.80;;;14.00;99.90;;;;;;5084155;28;20830;-65
2022/09/09 01:27:08;;;;;;;14.33;13.10;;;14.00;99.90;;;;;;5079768;28;20457;-66
2022/09/09 01:29:36;;;;;;;14.83;13.37;;;14.00;99.90;;;;;;5079269;28;20458;-66
2022/09/09 01:32:40;;;;;;;14.83;13.60;;;14.00;99.90;;;;;;5081548;28;20959;-67
2022/09/09 01:35:11;;;;;;;15.20;14.10;;;14.00;99.90;;;;;;5082010;28;20492;-66
2022/09/09 01:37:38;;;;;;;15.30;14.13;;;14.00;99.90;;;;;;5080420;28;20465;-67
2022/09/09 01:40:07;;;;;;;15.20;13.87;;;14.00;99.90;;;;;;5085418;28;20450;-66
2022/09/09 01:42:35;;;;;;;14.60;13.77;;;14.00;99.90;;;;;;5079205;28;21024;-66
2022/09/09 01:45:02;;;;;;;15.17;13.87;;;14.00;99.90;;;;;;5078678;28;21088;-66
2022/09/09 01:47:30;;;;;;;14.47;13.40;;;14.00;99.90;;;;;;5080196;28;20469;-68
2022/09/09 01:49:57;;;;;;;13.70;12.90;;;14.00;99.90;;;;;;5083140;28;20481;-65
2022/09/09 01:52:24;;;;;;;21.00;13.47;;;14.00;99.90;;;;;;5087800;28;20829;-65
2022/09/09 01:54:51;;;;;;;13.70;12.80;;;14.00;99.90;;;;;;5083040;28;20458;-66
2022/09/09 01:57:24;;;;;;;13.83;13.03;;;14.00;99.90;;;;;;5080777;28;20454;-66
2022/09/09 02:00:06;;;;;;;14.00;13.10;;;14.00;99.90;;;;;;5082208;28;20516;-65
2022/09/09 02:02:37;;;;;;;12.93;12.13;;;14.10;99.90;;;;;;5084063;28;20497;-67
2022/09/09 02:05:15;;;;;;;14.00;12.83;;;14.20;99.90;;;;;;5080643;28;20549;-66
2022/09/09 02:07:43;;;;;;;14.07;13.17;;;14.20;99.90;;;;;;5084248;28;20545;-66
2022/09/09 02:10:17;;;;;;;13.07;12.03;;;14.20;99.90;;;;;;5083175;28;20449;-68
2022/09/09 02:12:46;;;;;;;13.83;12.67;;;14.30;99.90;;;;;;5080920;28;20468;-66
2022/09/09 02:15:20;;;;;;;19.53;12.30;;;14.30;99.90;;;;;;5084399;28;20474;-67
2022/09/09 02:17:50;;;;;;;13.20;12.40;;;14.30;99.90;;;;;;5079990;28;20466;-66
2022/09/09 02:20:19;;;;;;;14.77;13.37;;;14.40;99.90;;;;;;5083537;28;20817;-66
2022/09/09 02:22:52;;;;;;;13.07;11.90;;;14.40;99.90;;;;;;5085633;28;20833;-67
2022/09/09 02:25:21;;;;;;;12.90;11.80;;;14.40;99.90;;;;;;5083000;28;20450;-66
2022/09/09 02:27:51;;;;;;;14.00;12.33;;;14.50;99.90;;;;;;5079815;28;20461;-66
2022/09/09 02:30:22;;;;;;;13.60;12.33;;;14.50;99.90;;;;;;5076684;28;20499;-65
2022/09/09 02:32:51;;;;;;;16.43;12.00;;;14.50;99.90;;;;;;5080671;28;20970;-67
2022/09/09 02:35:21;;;;;;;13.03;11.93;;;14.60;99.90;;;;;;5084385;28;20455;-67
2022/09/09 02:37:51;;;;;;;11.80;11.20;;;14.60;99.90;;;;;;5075402;28;20458;-66
2022/09/09 02:40:18;;;;;;;12.47;11.33;;;14.70;99.90;;;;;;5078146;28;21070;-67
2022/09/09 02:42:47;;;;;;;11.90;11.17;;;14.70;99.90;;;;;;5078280;28;20585;-67
2022/09/09 02:45:19;;;;;;;12.90;12.00;;;14.70;99.90;;;;;;5079732;28;20462;-67
2022/09/09 02:47:54;;;;;;;14.83;13.33;;;14.70;99.90;;;;;;5082189;28;20465;-67
2022/09/09 02:50:25;;;;;;;13.70;12.80;;;14.70;99.90;;;;;;5077489;28;20845;-66
2022/09/09 02:53:03;;;;;;;13.97;12.60;;;14.70;99.90;;;;;;5080936;28;20803;-67
2022/09/09 02:55:39;;;;;;;13.90;13.00;;;14.70;99.90;;;;;;5082004;28;20465;-68
2022/09/09 02:58:10;;;;;;;13.60;12.63;;;14.70;99.90;;;;;;5074509;28;20557;-66
2022/09/09 03:00:40;;;;;;;14.03;12.70;;;14.70;99.90;;;;;;5079938;28;20462;-67
2022/09/09 03:03:08;;;;;;;13.73;12.63;;;14.70;99.90;;;;;;5075986;28;20581;-66
2022/09/09 03:05:35;;;;;;;20.33;12.40;;;14.70;99.90;;;;;;5080963;28;21034;-66
2022/09/09 03:08:03;;;;;;;13.80;12.60;;;14.70;99.90;;;;;;5075147;28;20814;-67
2022/09/09 03:10:31;;;;;;;14.50;13.30;;;14.70;99.90;;;;;;5080416;28;20458;-67
2022/09/09 03:12:59;;;;;;;14.00;12.90;;;14.70;99.90;;;;;;5081368;28;20557;-67
2022/09/09 03:15:28;;;;;;;13.37;12.20;;;14.60;99.90;;;;;;5082541;28;20508;-68
2022/09/09 03:17:56;;;;;;;15.10;13.87;;;14.60;99.90;;;;;;5077145;28;20472;-66
2022/09/09 03:20:25;;;;;;;14.77;13.20;;;14.60;99.90;;;;;;5076000;28;20469;-67
2022/09/09 03:22:52;;;;;;;13.03;12.00;;;14.60;99.90;;;;;;5080908;28;20492;-66
2022/09/09 03:25:23;;;;;;;14.00;12.80;;;14.60;99.90;;;;;;5084307;28;20852;-68
2022/09/09 03:27:52;;;;;;;14.10;12.83;;;14.60;99.90;;;;;;5079565;28;20477;-67
2022/09/09 03:30:19;;;;;;;14.67;13.30;;;14.60;99.90;;;;;;5082695;28;20458;-67
2022/09/09 03:32:46;;;;;;;13.53;12.00;;;14.70;99.90;;;;;;5081300;28;20476;-67
2022/09/09 03:35:17;;;;;;;13.67;12.40;;;14.70;99.90;;;;;;5083876;28;20805;-66
2022/09/09 03:37:44;;;;;;;12.97;11.83;;;14.80;99.90;;;;;;5076698;28;20474;-66
2022/09/09 03:40:12;;;;;;;13.90;12.67;;;14.90;99.90;;;;;;5079731;28;20982;-66
2022/09/09 03:42:40;;;;;;;15.00;12.00;;;14.90;99.90;;;;;;5078567;28;20486;-68
2022/09/09 03:45:09;;;;;;;12.10;10.43;;;14.90;99.90;;;;;;5078939;28;20458;-67
2022/09/09 03:47:36;;;;;;;10.53;9.77;;;15.00;99.90;;;;;;5084571;28;20474;-66
2022/09/09 03:50:06;;;;;;;14.63;10.73;;;15.00;99.90;;;;;;5079170;28;20517;-66
2022/09/09 03:52:36;;;;;;;12.40;9.70;;;15.10;99.90;;;;;;5074786;28;20549;-66
2022/09/09 03:55:04;;;;;;;10.67;9.63;;;15.10;99.90;;;;;;5075098;28;21059;-67
2022/09/09 03:57:31;;;;;;;16.73;10.33;;;15.20;99.90;;;;;;5084404;28;20886;-66
2022/09/09 04:00:00;;;;;;;11.43;10.33;;;15.20;99.90;;;;;;5077484;28;20458;-66
2022/09/09 04:02:27;;;;;;;10.50;9.40;;;15.20;99.90;;;;;;5057291;28;20769;-68
2022/09/09 04:04:55;;;;;;;10.13;9.10;;;15.20;99.90;;;;;;5046451;28;20471;-68
2022/09/09 04:07:22;;;;;;;10.27;9.33;;;15.20;99.90;;;;;;5047380;28;20489;-68
2022/09/09 04:09:51;;;;;;;11.27;9.00;;;15.10;99.90;;;;;;5048396;28;20458;-67
2022/09/09 04:12:17;;;;;;;10.27;9.23;;;15.10;99.90;;;;;;5047600;28;20472;-68
2022/09/09 04:14:44;;;;;;;10.60;9.20;;;15.20;99.90;;;;;;5047614;28;20463;-67
2022/09/09 04:17:11;;;;;;;11.07;8.57;;;15.20;99.90;;;;;;5049341;28;20471;-66
2022/09/09 04:19:38;;;;;;;9.27;8.40;;;15.20;99.90;;;;;;5048316;28;20577;-68
2022/09/09 04:22:05;;;;;;;10.13;9.13;;;15.30;99.90;;;;;;5046713;28;20470;-67
2022/09/09 04:24:32;;;;;;;8.70;8.00;;;15.30;99.90;;;;;;5046416;28;20490;-67
2022/09/09 04:27:00;;;;;;;9.40;8.20;;;15.40;99.90;;;;;;5045584;28;20466;-68
2022/09/09 04:29:27;;;;;;;9.33;8.43;;;15.40;99.90;;;;;;5046008;28;20470;-67
2022/09/09 04:31:53;;;;;;;12.27;8.60;;;15.40;99.90;;;;;;5046438;28;20556;-67
2022/09/09 04:34:21;;;;;;;10.90;8.37;;;15.50;99.90;;;;;;5049015;28;20463;-66
2022/09/09 04:36:47;;;;;;;16.83;7.67;;;15.50;99.90;;;;;;5047693;28;20937;-66
2022/09/09 04:39:14;;;;;;;8.30;7.50;;;15.50;99.90;;;;;;5048862;28;20652;-66
2022/09/09 04:41:41;;;;;;;8.70;7.00;;;15.60;99.90;;;;;;5047401;28;20497;-66
2022/09/09 04:44:09;;;;;;;10.33;8.00;;;15.60;99.90;;;;;;5047004;28;21073;-66
2022/09/09 04:46:36;;;;;;;8.27;7.67;;;15.60;99.90;;;;;;5045799;28;20663;-66
2022/09/09 04:49:03;;;;;;;9.10;8.10;;;15.60;99.90;;;;;;5047159;28;20473;-68
2022/09/09 04:51:31;;;;;;;7.53;7.00;;;15.60;99.90;;;;;;5046955;28;21004;-67
2022/09/09 04:53:58;;;;;;;8.40;7.50;;;15.60;99.90;;;;;;5049747;28;20568;-68
2022/09/09 04:56:26;;;;;;;11.47;8.00;;;15.70;99.90;;;;;;5049376;28;20459;-66
2022/09/09 04:58:54;;;;;;;9.13;7.10;;;15.70;99.90;;;;;;5051885;28;20462;-67
2022/09/09 05:01:24;;;;;;;18.90;7.90;;;15.80;99.90;;;;;;5052602;28;20825;-66
2022/09/09 05:03:53;;;;;;;10.40;8.13;;;15.80;99.90;;;;;;5050483;28;20573;-67
2022/09/09 05:06:21;;;;;;;11.20;7.40;;;15.80;99.90;;;;;;5051077;28;20470;-67
2022/09/09 05:08:49;;;;;;;10.00;6.97;;;15.80;99.90;;;;;;5051243;28;20566;-66
2022/09/09 05:11:18;;;;;;;18.33;6.50;;;15.80;99.90;;;;;;5051806;28;20486;-65
2022/09/09 05:13:45;;;;;;;12.60;7.03;;;15.90;99.90;;;;;;5051919;28;20458;-66
2022/09/09 05:16:12;;;;;;;11.13;6.87;;;15.90;99.90;;;;;;5049696;28;21174;-67
2022/09/09 05:18:42;;;;;;;14.20;6.40;;;16.00;99.90;;;;;;5051326;28;20490;-67
2022/09/09 05:21:09;;;;;;;9.63;6.33;;;16.00;99.90;;;;;;5051814;28;20473;-68
2022/09/09 05:23:36;;;;;;;10.47;6.30;;;16.00;99.90;;;;;;5051808;28;21095;-67
2022/09/09 05:26:04;;;;;;;10.43;6.83;;;16.00;99.90;;;;;;5051636;28;20472;-69
2022/09/09 05:28:31;;;;;;;7.33;6.70;;;16.00;99.90;;;;;;5050736;28;21801;-68
2022/09/09 05:31:00;;;;;;;12.50;7.70;;;16.00;99.90;;;;;;5051146;28;20817;-67
2022/09/09 05:33:27;;;;;;;13.50;7.00;;;16.00;99.90;;;;;;5051216;28;20451;-67
2022/09/09 05:36:01;;;;;;;8.37;6.80;;;16.00;99.90;;;;;;5051165;28;20470;-66
2022/09/09 05:38:29;;;;;;;10.37;6.60;;;16.00;99.90;;;;;;5051051;28;20499;-67
2022/09/09 05:40:57;;;;;;;8.50;7.80;;;16.00;99.90;;;;;;5051516;28;20952;-66
2022/09/09 05:43:25;;;;;;;9.67;6.33;;;16.10;99.90;;;;;;5050485;28;20501;-67
2022/09/09 05:46:02;;;;;;;8.67;6.50;;;16.10;99.90;;;;;;5050840;28;20987;-67
2022/09/09 05:48:30;;;;;;;9.23;7.77;;;16.10;99.90;;;;;;5051425;28;20466;-66
2022/09/09 05:50:59;;;;;;;6.93;6.40;;;16.10;99.90;;;;;;5051641;28;20855;-67
2022/09/09 05:53:26;;;;;;;7.77;6.30;;;16.20;99.90;;;;;;5049740;28;20573;-67
2022/09/09 05:56:01;;;;;;;8.73;6.30;;;16.20;99.90;;;;;;5049894;28;20463;-67
2022/09/09 05:58:28;;;;;;;8.00;6.50;;;16.20;99.90;;;;;;5051634;28;20779;-68
2022/09/09 06:01:01;;;;;;;7.50;6.23;;;16.20;99.90;;;;;;5049594;28;20474;-67
2022/09/09 06:03:28;;;;;;;7.10;6.40;;;16.20;99.90;;;;;;5050425;28;20499;-67
2022/09/09 06:06:00;;;;;;;8.40;6.17;;;16.30;99.90;;;;;;5049365;28;20525;-67
2022/09/09 06:08:27;;;;;;;7.63;6.30;;;16.20;99.90;;;;;;5049483;28;20518;-68
2022/09/09 06:10:54;;;;;;;10.50;8.10;;;16.20;99.90;;;;;;5049596;28;20458;-67
2022/09/09 06:13:21;;;;;;;8.50;7.20;;;16.20;99.90;;;;;;5049275;28;20466;-67
2022/09/09 06:15:52;;;;;;;8.77;7.13;;;16.20;99.90;;;;;;5049254;28;20478;-67
2022/09/09 06:18:19;;;;;;;7.70;7.07;;;16.20;99.90;;;;;;5047979;28;20726;-67
2022/09/09 06:20:54;;;;;;;8.07;7.33;;;16.30;99.90;;;;;;5048115;28;20459;-68
2022/09/09 06:23:23;;;;;;;7.70;6.97;;;16.40;99.90;;;;;;5050143;28;20854;-68
2022/09/09 06:25:50;;;;;;;12.10;8.30;;;16.50;99.90;;;;;;5049141;28;20459;-67
2022/09/09 06:28:17;;;;;;;9.30;8.53;;;16.60;99.90;;;;;;5048634;28;20718;-69
2022/09/09 06:30:45;;;;;;;8.80;7.93;;;16.70;99.90;;;;;;5049338;28;20486;-67
2022/09/09 06:33:12;;;;;;;9.70;8.80;;;16.80;99.90;;;;;;5051208;28;20459;-68
2022/09/09 06:35:39;;;;;;;9.27;7.83;;;16.90;99.90;;;;;;5051515;28;21571;-67
2022/09/09 06:38:08;;;;;;;8.90;8.10;;;17.00;99.90;;;;;;5080562;28;20962;-67
2022/09/09 06:40:36;;;;;;;9.40;8.50;;;17.10;99.90;;;;;;5080216;28;20544;-67
2022/09/09 06:43:04;;;;;;;12.67;9.00;;;17.20;99.90;;;;;;5073546;28;20490;-68
2022/09/09 06:45:31;;;;;;;8.87;8.47;;;17.20;99.90;;;;;;5072735;28;20833;-68
2022/09/09 06:47:58;;;;;;;13.50;9.30;;;17.20;99.90;;;;;;5049653;28;20494;-67
2022/09/09 06:50:25;;;;;;;11.80;9.97;;;17.10;99.90;;;;;;5050856;28;21028;-67
2022/09/09 06:52:51;;;;;;;9.73;9.03;;;17.00;99.90;;;;;;5051073;28;20470;-67
2022/09/09 06:55:19;;;;;;;12.40;9.70;;;17.00;99.90;;;;;;5051170;28;21064;-68
2022/09/09 06:57:48;;;;;;;12.50;10.57;;;16.90;99.90;;;;;;5049287;28;20465;-69
2022/09/09 07:00:15;;;;;;;10.10;9.20;;;16.80;99.90;;;;;;5049879;28;20542;-68
2022/09/09 07:02:42;;;;;;;11.13;10.13;;;16.80;99.90;;;;;;5076392;28;20486;-69
2022/09/09 07:05:09;;;;;;;10.93;10.13;;;16.80;99.90;;;;;;5075476;28;20494;-67
2022/09/09 07:07:36;;;;;;;11.07;9.93;;;16.90;99.90;;;;;;5050086;28;20800;-68
2022/09/09 07:10:05;;;;;;;10.63;9.73;;;16.90;99.90;;;;;;5049703;28;20477;-69
2022/09/09 07:12:32;;;;;;;14.47;10.33;;;16.80;99.90;;;;;;5050634;28;20962;-68
2022/09/09 07:15:00;;;;;;;11.83;10.70;;;16.90;99.90;;;;;;5050299;28;20470;-68
2022/09/09 07:17:29;;;;;;;11.30;10.40;;;16.90;99.90;;;;;;5049974;28;20702;-68
2022/09/09 07:19:56;;;;;;;11.67;10.37;;;16.90;99.90;;;;;;5049672;28;20580;-69
2022/09/09 07:22:23;;;;;;;16.00;10.60;;;16.90;99.90;;;;;;5049428;28;20478;-68
2022/09/09 07:24:50;;;;;;;11.37;10.60;;;17.00;99.90;;;;;;5049109;28;20495;-68
2022/09/09 07:27:17;;;;;;;11.43;10.40;;;17.20;99.90;;;;;;5055088;28;20462;-68
2022/09/09 07:29:45;;;;;;;11.80;10.90;;;17.50;99.90;;;;;;5054129;28;20489;-67
2022/09/09 07:32:13;;;;;;;11.57;10.87;;;17.90;99.90;;;;;;5042099;28;20816;-68
2022/09/09 07:34:40;;;;;;;15.73;11.73;;;18.20;99.90;;;;;;5048462;28;20775;-68
2022/09/09 07:37:07;;;;;;;12.87;11.97;;;18.40;99.90;;;;;;5047111;28;20475;-68
2022/09/09 07:39:34;;;;;;;13.60;12.47;;;18.40;99.90;;;;;;5047033;28;20549;-68
2022/09/09 07:42:01;;;;;;;16.33;13.10;;;18.70;99.90;;;;;;5047900;28;20603;-67
2022/09/09 07:44:28;;;;;;;14.20;12.97;;;18.80;99.90;;;;;;5047266;28;20490;-68
2022/09/09 07:46:55;;;;;;;14.03;12.93;;;18.80;99.90;;;;;;5049628;28;21039;-69
2022/09/09 07:49:24;;;;;;;14.43;13.30;;;18.90;99.90;;;;;;5048461;28;20528;-67
2022/09/09 07:51:51;;;;;;;14.83;13.60;;;19.10;99.90;;;;;;5049163;28;20464;-68
2022/09/09 07:54:23;;;;;;;13.87;13.07;;;19.10;99.90;;;;;;5047530;28;20859;-68
2022/09/09 07:56:50;;;;;;;14.97;13.87;;;19.10;99.90;;;;;;5046518;28;20486;-69
2022/09/09 07:59:18;;;;;;;16.50;14.80;;;19.20;99.90;;;;;;5058144;28;20461;-67
2022/09/09 08:01:47;;;;;;;15.73;14.33;;;18.90;99.90;;;;;;5058699;28;20574;-67
2022/09/09 08:04:16;;;;;;;15.60;13.50;;;18.90;99.90;;;;;;5071403;28;20968;-68
2022/09/09 08:06:47;;;;;;;15.47;14.07;;;19.00;99.90;;;;;;5075346;28;20673;-67
2022/09/09 08:09:13;;;;;;;15.83;14.70;;;19.10;99.90;;;;;;5077171;28;20585;-67
2022/09/09 08:11:41;;;;;;;16.20;14.23;;;19.10;99.90;;;;;;5054244;28;20462;-68
2022/09/09 08:14:09;;;;;;;14.90;13.87;;;18.90;99.90;;;;;;5046548;28;20474;-67
2022/09/09 08:16:38;;;;;;;14.47;13.53;;;18.90;99.90;;;;;;5048262;28;21141;-69
2022/09/09 08:19:07;;;;;;;14.90;13.50;;;18.90;99.90;;;;;;5045272;28;20456;-67
2022/09/09 08:21:36;;;;;;;14.73;13.73;;;18.80;99.90;;;;;;5052029;28;20458;-69
2022/09/09 08:24:06;;;;;;;15.07;13.87;;;18.80;99.90;;;;;;5046165;28;20489;-68
2022/09/09 08:26:37;;;;;;;15.87;14.90;;;19.00;99.90;;;;;;5045947;28;20472;-68
2022/09/09 08:29:06;;;;;;;15.20;14.10;;;19.10;99.90;;;;;;5047979;28;20984;-68
2022/09/09 08:31:38;;;;;;;15.90;14.70;;;19.30;99.90;;;;;;5050488;28;20460;-68
2022/09/09 08:34:06;;;;;;;14.83;13.90;;;19.40;99.90;;;;;;5052039;28;20467;-69
2022/09/09 08:36:36;;;;;;;15.20;13.97;;;19.50;99.90;;;;;;5050727;28;20457;-68
2022/09/09 08:39:08;;;;;;;15.57;14.10;;;19.60;99.90;;;;;;5052216;28;20563;-68
2022/09/09 08:42:06;;;;;;;19.80;14.00;;;19.60;99.90;;;;;;5051267;28;20466;-69
2022/09/09 08:44:49;;;;;;;14.80;13.60;;;19.80;99.90;;;;;;5048829;28;20490;-69
2022/09/09 08:47:25;;;;;;;15.13;14.03;;;19.60;99.90;;;;;;5050091;28;20481;-69
2022/09/09 08:50:02;;;;;;;15.40;14.20;;;19.80;99.90;;;;;;5050784;28;20976;-67
2022/09/09 08:52:32;;;;;;;14.90;13.73;;;19.70;99.90;;;;;;5049371;28;21409;-69
2022/09/09 08:55:13;;;;;;;14.37;13.47;;;19.70;99.90;;;;;;5051746;28;21259;-69
2022/09/09 08:57:40;;;;;;;16.03;14.43;;;19.60;99.90;;;;;;5050932;28;20469;-67
2022/09/09 09:00:11;;;;;;;15.10;14.07;;;19.50;99.90;;;;;;5047850;28;20484;-68
2022/09/09 09:02:49;;;;;;;14.90;13.87;;;19.50;99.90;;;;;;5043120;28;20882;-69
2022/09/09 09:05:24;;;;;;;15.03;14.03;;;19.80;99.90;;;;;;5057602;28;20493;-68
2022/09/09 09:08:01;;;;;;;15.10;14.10;;;19.80;99.90;;;;;;5053615;28;21449;-68
2022/09/09 09:10:40;;;;;;;16.43;15.20;;;20.00;99.90;;;;;;5082765;28;20466;-69
2022/09/09 09:13:15;;;;;;;15.67;14.47;;;20.50;99.90;;;;;;5080322;28;21635;-70
2022/09/09 09:15:44;;;;;;;15.30;14.40;;;20.90;99.90;;;;;;5063434;28;20490;-69
2022/09/09 09:18:13;;;;;;;15.57;14.67;;;21.10;99.90;;;;;;5051764;28;21153;-69
2022/09/09 09:20:51;;;;;;;15.33;14.40;;;21.60;99.90;;;;;;5053154;28;20853;-69
2022/09/09 09:23:23;;;;;;;15.77;14.67;;;21.40;99.90;;;;;;5052889;28;20480;-70
2022/09/09 09:25:53;;;;;;;16.13;14.93;;;21.60;99.90;;;;;;5050360;28;20486;-69
2022/09/09 09:28:24;;;;;;;16.27;15.07;;;21.60;99.90;;;;;;5051840;28;20466;-68
2022/09/09 09:30:57;;;;;;;16.80;15.23;;;21.60;99.90;;;;;;5052203;28;20465;-69
2022/09/09 09:33:28;;;;;;;16.00;14.93;;;21.50;99.90;;;;;;5053580;28;20498;-69
2022/09/09 09:35:55;;;;;;;15.37;14.37;;;21.50;99.90;;;;;;5050432;28;20829;-69
2022/09/09 09:38:24;;;;;;;17.00;15.40;;;21.70;99.90;;;;;;5052904;28;21488;-68
2022/09/09 09:40:57;;;;;;;16.57;15.67;;;22.40;99.90;;;;;;5052500;28;20462;-68
2022/09/09 09:43:27;;;;;;;15.80;15.00;;;22.40;99.90;;;;;;5051014;28;20877;-68
2022/09/09 09:45:55;;;;;;;16.40;15.20;;;22.40;99.90;;;;;;5050133;28;20591;-68
2022/09/09 09:48:22;;;;;;;16.63;15.50;;;22.50;99.90;;;;;;5052666;28;20458;-70
2022/09/09 09:50:52;;;;;;;16.70;15.70;;;22.20;99.90;;;;;;5051292;28;20567;-70
2022/09/09 09:53:23;;;;;;;16.57;15.37;;;22.00;99.90;;;;;;5051113;28;20469;-70
2022/09/09 09:55:56;;;;;;;17.07;15.77;;;21.60;99.90;;;;;;5052671;28;20556;-68
2022/09/09 09:58:24;;;;;;;16.40;15.30;;;21.50;99.90;;;;;;5048476;28;20458;-69
2022/09/09 10:00:53;;;;;;;16.03;15.13;;;21.40;99.90;;;;;;5049962;28;20770;-70
2022/09/09 10:03:23;;;;;;;16.87;15.60;;;21.40;99.90;;;;;;5051518;28;20486;-68
2022/09/09 10:05:50;;;;;;;16.33;15.27;;;21.60;99.90;;;;;;5053337;28;20482;-69
2022/09/09 10:08:18;;;;;;;15.87;14.97;;;21.80;99.90;;;;;;5050228;28;20565;-68
2022/09/09 10:11:06;;;;;;;16.37;15.40;;;21.90;99.90;;;;;;5051185;28;20562;-68
2022/09/09 10:13:42;;;;;;;16.00;15.00;;;22.50;99.90;;;;;;5051348;28;20461;-67
2022/09/09 10:16:31;;;;;;;15.93;15.00;;;22.90;99.90;;;;;;5050128;28;21127;-67
2022/09/09 10:19:00;;;;;;;16.40;15.30;;;23.00;99.90;;;;;;5052450;28;20698;-67
2022/09/09 10:21:49;;;;;;;16.10;15.20;;;22.70;99.90;;;;;;5052423;28;20577;-68
2022/09/09 10:24:52;;;;;;;15.23;14.43;;;22.90;99.90;;;;;;5049657;28;20490;-68
2022/09/09 10:27:28;;;;;;;16.50;15.23;;;22.80;99.90;;;;;;5023698;28;20471;-69
2022/09/09 10:30:08;;;;;;;15.47;14.47;;;22.30;99.90;;;;;;5052103;28;20458;-67
2022/09/09 10:32:41;;;;;;;15.50;14.70;;;22.30;99.90;;;;;;5052865;28;20488;-67
2022/09/09 10:35:15;;;;;;;15.50;14.80;;;22.10;99.90;;;;;;5053148;28;20478;-68
2022/09/09 10:38:13;;;;;;;15.80;14.80;;;21.90;99.90;;;;;;5081462;28;20461;-68
2022/09/09 10:40:45;;;;;;;16.10;15.13;;;21.60;99.90;;;;;;5064113;28;20641;-68
2022/09/09 10:43:25;;;;;;;15.80;14.90;;;21.60;99.90;;;;;;5051263;28;20455;-68
2022/09/09 10:46:03;;;;;;;16.50;15.20;;;21.60;99.90;;;;;;5051821;28;21001;-68
2022/09/09 10:48:38;;;;;;;16.50;15.30;;;21.80;99.90;;;;;;5052639;28;20482;-69
2022/09/09 10:51:20;;;;;;;15.90;14.90;;;21.80;99.90;;;;;;5052872;28;20945;-68
2022/09/09 10:53:56;;;;;;;16.87;15.83;;;21.50;99.90;;;;;;5051407;28;20475;-68
2022/09/09 10:56:25;;;;;;;16.80;15.53;;;21.90;99.90;;;;;;5050491;28;20500;-68
2022/09/09 10:58:58;;;;;;;16.07;15.17;;;21.60;99.90;;;;;;5051004;28;20996;-68
2022/09/09 11:01:29;;;;;;;15.77;14.90;;;21.70;99.90;;;;;;5050204;28;20462;-69
2022/09/09 11:04:02;;;;;;;15.50;14.50;;;21.80;99.90;;;;;;5049322;28;20491;-68
2022/09/09 11:06:35;;;;;;;15.80;14.60;;;21.80;99.90;;;;;;5049771;28;20462;-69
2022/09/09 11:09:04;;;;;;;16.20;14.90;;;22.10;99.90;;;;;;5050019;28;20467;-68
2022/09/09 11:11:37;;;;;;;15.97;14.87;;;22.20;99.90;;;;;;5048118;28;20466;-68
2022/09/09 11:14:13;;;;;;;15.70;14.43;;;22.40;99.90;;;;;;5049440;28;20463;-69
2022/09/09 11:16:54;;;;;;;15.37;14.43;;;22.50;99.90;;;;;;5047945;27;20577;-68
2022/09/09 11:19:28;;;;;;;15.50;14.60;;;22.70;99.90;;;;;;5049008;28;22440;-69
2022/09/09 11:21:58;;;;;;;15.17;14.47;;;22.70;99.90;;;;;;5048668;28;20482;-69
2022/09/09 11:24:30;;;;;;;15.77;14.83;;;22.80;99.90;;;;;;5047503;28;20485;-70
2022/09/09 11:27:02;;;;;;;16.07;15.07;;;23.00;99.90;;;;;;5048267;28;20466;-70
2022/09/09 11:29:52;;;;;;;15.40;14.60;;;23.10;99.90;;;;;;5046288;28;20879;-69
2022/09/09 11:32:41;;;;;;;15.57;14.70;;;22.60;99.90;;;;;;5047621;28;20466;-69
2022/09/09 11:35:23;;;;;;;14.67;13.80;;;22.30;99.90;;;;;;5045957;28;20495;-69
2022/09/09 11:38:09;;;;;;;15.17;14.37;;;22.10;99.90;;;;;;5047681;28;20630;-70
2022/09/09 11:40:36;;;;;;;15.73;14.83;;;23.10;99.90;;;;;;5047305;28;20466;-71
2022/09/09 11:43:05;;;;;;;14.93;14.03;;;24.30;99.90;;;;;;5047742;28;20467;-70
2022/09/09 11:45:35;;;;;;;16.37;15.30;;;24.60;99.90;;;;;;5046376;28;20636;-70
2022/09/09 11:48:05;;;;;;;16.27;15.27;;;24.90;99.90;;;;;;5045878;28;20470;-71
2022/09/09 11:50:36;;;;;;;15.57;14.70;;;24.50;99.90;;;;;;5041805;28;20566;-71
2022/09/09 11:53:22;;;;;;;14.50;13.70;;;24.40;99.90;;;;;;5043156;28;21191;-71
2022/09/09 11:56:00;;;;;;;16.07;15.23;;;24.10;99.90;;;;;;5043130;28;20992;-70
2022/09/09 11:58:29;;;;;;;15.83;14.93;;;24.40;99.90;;;;;;5044482;28;21888;-72
2022/09/09 12:00:55;;;;;;;15.47;14.70;;;24.10;99.90;;;;;;5044576;28;20503;-69
2022/09/09 12:03:39;;;;;;;15.33;14.10;;;23.40;99.90;;;;;;5044545;28;20585;-70
2022/09/09 12:06:20;;;;;;;15.80;14.90;;;23.20;99.90;;;;;;5044672;28;21157;-70
2022/09/09 12:08:52;;;;;;;16.57;15.47;;;23.40;99.90;;;;;;5044357;28;20505;-69
2022/09/09 12:11:27;;;;;;;15.30;14.60;;;23.30;99.90;;;;;;5043713;28;20466;-70
2022/09/09 12:13:56;;;;;;;15.83;14.93;;;23.10;99.90;;;;;;5044647;28;20462;-69
2022/09/09 12:16:32;;;;;;;16.67;15.10;;;22.60;99.90;;;;;;5044060;28;20493;-70
2022/09/09 12:19:19;;;;;;;15.67;14.70;;;22.30;99.90;;;;;;5043977;28;20506;-72
2022/09/09 12:21:54;;;;;;;15.73;14.73;;;22.10;99.90;;;;;;5043812;28;20476;-69
2022/09/09 12:24:28;;;;;;;19.10;17.60;;;21.40;99.90;;;;;;5043609;28;20827;-68
2022/09/09 12:27:02;;;;;;;20.63;18.93;;;20.50;99.90;;;;;;5037559;28;20574;-67
2022/09/09 12:29:38;;;;;;;20.30;18.50;;;19.10;99.90;;;;;;5031598;28;20467;-69
2022/09/09 12:32:09;;;;;;;18.10;16.73;;;18.50;99.90;;;;;;5029587;28;20512;-68
2022/09/09 12:34:41;;;;;;;17.23;15.87;;;18.20;99.90;;;;;;5030468;28;20622;-70
2022/09/09 12:37:18;;;;;;;16.50;15.20;;;18.00;99.90;;;;;;5030122;28;22339;-70
2022/09/09 12:39:48;;;;;;;14.30;13.37;;;18.00;99.90;;;;;;5029048;28;20467;-69
2022/09/09 12:42:19;;;;;;;12.80;11.90;;;18.00;99.90;;;;;;5029771;28;20545;-68
2022/09/09 12:44:53;;;;;;;10.73;9.97;;;18.00;99.90;;;;;;5030940;28;20459;-69
2022/09/09 12:47:23;;;;;;;9.10;8.20;;;18.20;99.90;;;;;;5030547;28;20471;-68
2022/09/09 12:49:52;;;;;;;9.33;8.40;;;18.60;99.90;;;;;;5030695;28;20470;-69
2022/09/09 12:52:24;;;;;;;8.20;7.50;;;18.80;99.90;;;;;;5029426;28;20468;-69